Dades meteomassalio
Diari Summary for Febrer 15, 2018 Units:  Metric    English   Both
« Previous Day
Next Day »
Diari Semanal Mensual Anual Personalitzat
  Maxima: Minima: Mijana:
Temperatura: -17.8 °C -16.8 °C -12.3 °C
Rosada: -17.8 °C -17.9 °C -14.9 °C
Humitat: Humidity % 53 % 74 %
Velocitat del vent: 0 km/h 0 km/h 6.3 km/h
Racha vent: 0 km/h - -
Vent:- - WSW
Pressio: 0 hPa 34591.4 hPa -
Pluja: 0 mm    
Historical Graphs
 
 
Tabular Data for Febrer 15, 2018
Time Temperature Dew Point Pressure Wind Wind Speed Wind Gust Humidity Rainfall Rate (Hourly) solar Conditions
-17.8 °C -17.8 °C 0 hPa Calm     Humidity % 0 mm SolarRadiationWatts/m^2 W/m2 Conditions
00:00 -14.1 °C -16.3 °C 34591.4 hPa WNW 11.9 km/h 11.9 km/h 76 % 0 mm 0.0 W/m2 CLR
00:05 -14.1 °C -16.3 °C 34591.4 hPa NW 10.3 km/h 10.3 km/h 76 % 0 mm 0.0 W/m2 RA
00:10 -14.4 °C -16.6 °C 34591.4 hPa NW 12.9 km/h 12.9 km/h 76 % 0 mm 0.0 W/m2 CLR
00:15 -14.4 °C -16.6 °C 34591.4 hPa NW 11.9 km/h 11.9 km/h 76 % 0 mm 0.0 W/m2 CLR
00:20 -14.4 °C -16.6 °C 34591.4 hPa NW 11.9 km/h 11.9 km/h 76 % 0 mm 0.0 W/m2 CLR
00:25 -14.4 °C -16.6 °C 34591.4 hPa NW 17.9 km/h 17.9 km/h 76 % 0 mm 0.0 W/m2 CLR
00:30 -14.4 °C -16.6 °C 34591.4 hPa NNW 17.9 km/h 17.9 km/h 76 % 0 mm 0.0 W/m2 CLR
00:35 -14.4 °C -16.6 °C 34591.4 hPa NW 17.9 km/h 17.9 km/h 76 % 0 mm 0.0 W/m2 CLR
00:40 -14.7 °C -16.8 °C 34591.4 hPa NW 20.9 km/h 20.9 km/h 76 % 0 mm 0.0 W/m2 CLR
00:45 -14.7 °C -16.8 °C 34591.4 hPa NNW 20.9 km/h 20.9 km/h 76 % 0 mm 0.0 W/m2 CLR
00:50 -14.7 °C -16.7 °C 34591.4 hPa NNW 17.9 km/h 17.9 km/h 78 % 0 mm 0.0 W/m2 CLR
00:55 -14.1 °C -15.9 °C 34591.4 hPa NNW 15 km/h 15 km/h 79 % 0 mm 0.0 W/m2 CLR
01:05 -13.2 °C -15.1 °C 34591.4 hPa NW 17.9 km/h 17.9 km/h 79 % 0 mm 0.0 W/m2 CLR
01:10 -12.8 °C -14.8 °C 34601.5 hPa NW 9 km/h 9 km/h 79 % 0 mm 0.0 W/m2 CLR
01:15 -13.2 °C -15.2 °C 34601.5 hPa Calm     78 % 0 mm 0.0 W/m2 CLR
01:20 -13.2 °C -15.2 °C 34601.5 hPa WNW 15.6 km/h 15.6 km/h 78 % 0 mm 0.0 W/m2 CLR
01:25 -13.2 °C -15.2 °C 34601.5 hPa WNW 15 km/h 15 km/h 78 % 0 mm 0.0 W/m2 CLR
01:30 -13.4 °C -15.4 °C 34601.5 hPa WNW 17.9 km/h 17.9 km/h 78 % 0 mm 0.0 W/m2 CLR
01:35 -13.8 °C -15.9 °C 34601.5 hPa Calm     77 % 0 mm 0.0 W/m2 CLR
01:40 -14.1 °C -16.1 °C 34611.7 hPa Calm     78 % 0 mm 0.0 W/m2 CLR
01:45 -14.1 °C -16.1 °C 34601.5 hPa Calm     78 % 0 mm 0.0 W/m2 CLR
01:50 -14.4 °C -16.3 °C 34611.7 hPa WNW 17.9 km/h 17.9 km/h 78 % 0 mm 0.0 W/m2 CLR
01:55 -14.4 °C -16.3 °C 34611.7 hPa WNW 20.9 km/h 20.9 km/h 78 % 0 mm 0.0 W/m2 CLR
02:00 -14.4 °C -16.3 °C 34601.5 hPa WNW 18.2 km/h 18.2 km/h 78 % 0 mm 0.0 W/m2 CLR
02:05 -14.4 °C -16.3 °C 34601.5 hPa NW 18.2 km/h 18.2 km/h 78 % 0 mm 0.0 W/m2 CLR
02:10 -14.4 °C -16.3 °C 34611.7 hPa WNW 12.9 km/h 12.9 km/h 78 % 0 mm 0.0 W/m2 CLR
02:15 -14.4 °C -16.3 °C 34611.7 hPa WNW 12.9 km/h 12.9 km/h 78 % 0 mm 0.0 W/m2 CLR
02:20 -14.4 °C -16.3 °C 34611.7 hPa WNW 11.9 km/h 11.9 km/h 78 % 0 mm 0.0 W/m2 CLR
02:25 -14.7 °C -16.7 °C 34611.7 hPa Calm     78 % 0 mm 0.0 W/m2 CLR
02:30 -14.7 °C -16.8 °C 34611.7 hPa Calm     77 % 0 mm 0.0 W/m2 CLR
02:35 -15 °C -16.8 °C 34625.2 hPa Calm     80 % 0 mm 0.0 W/m2 CLR
02:40 -15 °C -16.7 °C 34625.2 hPa West 15 km/h 15 km/h 81 % 0 mm 0.0 W/m2 CLR
02:45 -15 °C -16.7 °C 34625.2 hPa WNW 12.9 km/h 12.9 km/h 81 % 0 mm 0.0 W/m2 CLR
02:50 -15.3 °C -17 °C 34625.2 hPa WNW 11.9 km/h 11.9 km/h 81 % 0 mm 0.0 W/m2 CLR
02:55 -15.3 °C -17 °C 34625.2 hPa WNW 11.9 km/h 11.9 km/h 81 % 0 mm 0.0 W/m2 CLR
03:00 -15.3 °C -17.1 °C 34635.4 hPa Calm     80 % 0 mm 0.0 W/m2 CLR
03:05 -15.3 °C -17.2 °C 34635.4 hPa Calm     79 % 0 mm 0.0 W/m2 CLR
03:10 -15.3 °C -17.2 °C 34635.4 hPa Calm     79 % 0 mm 0.0 W/m2 CLR
03:15 -15.3 °C -17.1 °C 34625.2 hPa Calm     80 % 0 mm 0.0 W/m2 CLR
03:20 -15.3 °C -16.8 °C 34625.2 hPa Calm     83 % 0 mm 0.0 W/m2 CLR
03:25 -15.3 °C -16.8 °C 34635.4 hPa WNW 9 km/h 9 km/h 83 % 0 mm 0.0 W/m2 CLR
03:30 -15.3 °C -16.9 °C 34635.4 hPa Calm     82 % 0 mm 0.0 W/m2 CLR
03:35 -15.6 °C -17.1 °C 34635.4 hPa Calm     83 % 0 mm 0.0 W/m2 CLR
03:40 -15.6 °C -17 °C 34635.4 hPa Calm     84 % 0 mm 0.0 W/m2 CLR
03:45 -15.6 °C -16.9 °C 34635.4 hPa WNW 9 km/h 9 km/h 85 % 0 mm 0.0 W/m2 CLR
03:50 -15.6 °C -16.7 °C 34635.4 hPa WNW 15.6 km/h 15.6 km/h 87 % 0 mm 0.0 W/m2 CLR
03:55 -15.6 °C -16.8 °C 34635.4 hPa WNW 7.7 km/h   86 % 0 mm 0.0 W/m2 CLR
04:00 -15.6 °C -17.1 °C 34635.4 hPa Calm     83 % 0 mm 0.0 W/m2 CLR
04:05 -15.9 °C -17.4 °C 34635.4 hPa Calm     82 % 0 mm 0.0 W/m2 CLR
04:10 -15.9 °C -17.4 °C 34635.4 hPa Calm     83 % 0 mm 0.0 W/m2 CLR
04:15 -15.9 °C -17.3 °C 34635.4 hPa Calm     84 % 0 mm 0.0 W/m2 CLR
04:20 -15.9 °C -17.3 °C 34635.4 hPa Calm     84 % 0 mm 0.0 W/m2 CLR
04:25 -15.9 °C -17.2 °C 34635.4 hPa Calm     85 % 0 mm 0.0 W/m2 CLR
04:30 -15.9 °C -17 °C 34635.4 hPa Calm     87 % 0 mm 0.0 W/m2 CLR
04:35 -15.9 °C -17.1 °C 34635.4 hPa Calm     86 % 0 mm 0.0 W/m2 CLR
04:40 -15.9 °C -17.6 °C 34635.4 hPa Calm     81 % 0 mm 0.0 W/m2 CLR
04:45 -16.2 °C -17.9 °C 34645.6 hPa Calm     81 % 0 mm 0.0 W/m2 CLR
04:50 -16.2 °C -17.9 °C 34645.6 hPa Calm     81 % 0 mm 0.0 W/m2 CLR
04:55 -16.2 °C -17.8 °C 34645.6 hPa Calm     82 % 0 mm 0.0 W/m2 CLR
05:00 -16.2 °C -17.9 °C 34645.6 hPa Calm     81 % 0 mm 0.0 W/m2 CLR
05:06 -16.2 °C -17.8 °C 34645.6 hPa Calm     82 % 0 mm 0.0 W/m2 CLR
05:11 -16.2 °C -17.6 °C 34645.6 hPa Calm     84 % 0 mm 0.0 W/m2 CLR
05:16 -16.2 °C -17.6 °C 34645.6 hPa Calm     84 % 0 mm 0.0 W/m2 CLR
05:21 -16.2 °C -17.5 °C 34645.6 hPa Calm     85 % 0 mm 0.0 W/m2 CLR
05:26 -16.6 °C -17.7 °C 34645.6 hPa Calm     86 % 0 mm 0.0 W/m2 CLR
05:31 -16.6 °C -17.7 °C 34645.6 hPa Calm     86 % 0 mm 0.0 W/m2 CLR
05:36 -16.6 °C -17.9 °C 34645.6 hPa Calm     84 % 0 mm 0.0 W/m2 CLR
05:41 -16.6 °C -17.8 °C 34645.6 hPa Calm     85 % 0 mm 0.0 W/m2 CLR
05:46 -16.6 °C -17.7 °C 34659.1 hPa Calm     86 % 0 mm 0.0 W/m2 CLR
05:56 -16.6 °C -17.6 °C 34659.1 hPa Calm     87 % 0 mm 0.0 W/m2 CLR
06:01 -16.6 °C -17.6 °C 34659.1 hPa Calm     87 % 0 mm 0.0 W/m2 CLR
06:06 -16.6 °C -17.6 °C 34645.6 hPa Calm     87 % 0 mm 0.0 W/m2 CLR
06:11 -16.6 °C -17.6 °C 34645.6 hPa Calm     87 % 0 mm 0.0 W/m2 CLR
06:16 -16.6 °C -17.6 °C 34659.1 hPa Calm     87 % 0 mm 0.0 W/m2 CLR
06:21 -16.6 °C -17.6 °C 34659.1 hPa Calm     87 % 0 mm 0.0 W/m2 CLR
06:26 -16.8 °C -17.8 °C 34659.1 hPa Calm     88 % 0 mm 0.0 W/m2 CLR
06:31 -16.6 °C -17.4 °C 34659.1 hPa Calm     89 % 0 mm 0.0 W/m2 CLR
06:36 -16.6 °C -17.4 °C 34669.3 hPa Calm     89 % 0 mm 0.0 W/m2 CLR
06:41 -16.6 °C -17.4 °C 34669.3 hPa Calm     89 % 0 mm 0.0 W/m2 CLR
06:46 -16.6 °C -17.4 °C 34669.3 hPa WNW 2.6 km/h   89 % 0 mm 0.0 W/m2 CLR
06:51 -16.6 °C -17.4 °C 34669.3 hPa NW 15 km/h 15 km/h 89 % 0 mm 0.0 W/m2 CLR
06:56 -16.6 °C -17.7 °C 34669.3 hPa Calm     86 % 0 mm 0.0 W/m2 CLR
07:01 -16.6 °C -17.7 °C 34669.3 hPa Calm     86 % 0 mm 0.0 W/m2 CLR
07:06 -16.6 °C -17.7 °C 34669.3 hPa Calm     86 % 0 mm 0.0 W/m2 CLR
07:11 -16.6 °C -17.8 °C 34669.3 hPa Calm     85 % 0 mm 0.0 W/m2 CLR
07:16 -16.6 °C -17.7 °C 34682.8 hPa Calm     86 % 0 mm 0.0 W/m2 CLR
07:21 -16.6 °C -17.7 °C 34682.8 hPa Calm     86 % 0 mm 0.0 W/m2 CLR
07:26 -16.6 °C -17.6 °C 34682.8 hPa Calm     87 % 0 mm 0.0 W/m2 CLR
07:31 -16.6 °C -17.6 °C 34682.8 hPa Calm     88 % 0 mm 0.0 W/m2 CLR
07:36 -16.6 °C -17.6 °C 34682.8 hPa Calm     88 % 0 mm 0.0 W/m2 CLR
07:41 -16.6 °C -17.4 °C 34682.8 hPa Calm     89 % 0 mm 0.0 W/m2 CLR
07:46 -16.6 °C -17.4 °C 34682.8 hPa Calm     89 % 0 mm 0.0 W/m2 OVC
07:51 -16.6 °C -17.6 °C 34693 hPa Calm     87 % 0 mm 0.0 W/m2 OVC
07:56 -16.8 °C -17.9 °C 34693 hPa Calm     87 % 0 mm 7.0 W/m2 OVC
08:01 -16.8 °C -17.8 °C 34693 hPa Calm     88 % 0 mm 9.0 W/m2 BKN
08:06 -16.8 °C -17.8 °C 34703.1 hPa Calm     88 % 0 mm 12.0 W/m2 BKN
08:11 -16.8 °C -17.8 °C 34703.1 hPa Calm     88 % 0 mm 14.0 W/m2 BKN
08:16 -16.8 °C -17.7 °C 34716.7 hPa Calm     89 % 0 mm 18.0 W/m2 BKN
08:21 -16.8 °C -17.8 °C 34716.7 hPa Calm     88 % 0 mm 19.0 W/m2 BKN
08:26 -16.8 °C -17.8 °C 34716.7 hPa Calm     88 % 0 mm 30.0 W/m2 BKN
08:31 -16.8 °C -17.8 °C 34716.7 hPa Calm     88 % 0 mm 40.0 W/m2 BKN
08:36 -16.6 °C -17.6 °C 34716.7 hPa Calm     88 % 0 mm 44.0 W/m2 BKN
08:41 -16.6 °C -17.6 °C 34716.7 hPa Calm     88 % 0 mm 60.0 W/m2 SCT
08:46 -16.6 °C -17.4 °C 34726.8 hPa Calm     89 % 0 mm 69.0 W/m2 FEW
08:51 -16.6 °C -17.6 °C 34726.8 hPa Calm     88 % 0 mm 65.0 W/m2 SCT
08:56 -16.2 °C -17.4 °C 34740.4 hPa Calm     86 % 0 mm 60.0 W/m2 SCT
09:01 -15.9 °C -17.2 °C 34740.4 hPa Calm     85 % 0 mm 44.0 W/m2 SCT
09:06 -15.9 °C -17.2 °C 34726.8 hPa Calm     85 % 0 mm 49.0 W/m2 SCT
09:11 -15.9 °C -17.1 °C 34740.4 hPa Calm     86 % 0 mm 67.0 W/m2 SCT
09:16 -15.9 °C -17.1 °C 34740.4 hPa Calm     86 % 0 mm 84.0 W/m2 FEW
09:21 -15.6 °C -16.8 °C 34740.4 hPa Calm     86 % 0 mm 135.0 W/m2 CLR
09:26 -15.6 °C -16.9 °C 34740.4 hPa Calm     85 % 0 mm 195.0 W/m2 CLR
09:31 -15.3 °C -16.6 °C 34726.8 hPa Calm     85 % 0 mm 202.0 W/m2 CLR
09:36 -15 °C -16.6 °C 34740.4 hPa Calm     82 % 0 mm 241.0 W/m2 CLR
09:41 -15 °C -16.8 °C 34740.4 hPa Calm     79 % 0 mm 257.0 W/m2 CLR
09:46 -14.7 °C -16.7 °C 34740.4 hPa Calm     78 % 0 mm 271.0 W/m2 CLR
09:51 -14.4 °C -16.3 °C 34740.4 hPa Calm     78 % 0 mm 283.0 W/m2 CLR
09:56 -14.1 °C -16.3 °C 34740.4 hPa Calm     76 % 0 mm 301.0 W/m2 CLR
10:01 -14.1 °C -16.3 °C 34750.5 hPa Calm     75 % 0 mm 313.0 W/m2 CLR
10:06 -13.8 °C -16.2 °C 34740.4 hPa Calm     74 % 0 mm 327.0 W/m2 CLR
10:12 -13.4 °C -16 °C 34740.4 hPa Calm     73 % 0 mm 339.0 W/m2 CLR
10:16 -13.4 °C -16.1 °C 34750.5 hPa Calm     72 % 0 mm 353.0 W/m2 CLR
10:22 -13.2 °C -15.9 °C 34750.5 hPa Calm     71 % 0 mm 364.0 W/m2 CLR
10:27 -12.6 °C -15.5 °C 34750.5 hPa NW 11.9 km/h 11.9 km/h 69 % 0 mm 378.0 W/m2 CLR
10:32 -12.2 °C -15.4 °C 34750.5 hPa NW 32.8 km/h 32.8 km/h 68 % 0 mm 388.0 W/m2 CLR
10:37 -11.6 °C -14.7 °C 34750.5 hPa WNW 18.2 km/h 18.2 km/h 69 % 0 mm 403.0 W/m2 CLR
10:42 -10.7 °C -13.9 °C 34750.5 hPa NNW 15 km/h 15 km/h 68 % 0 mm 413.0 W/m2 CLR
10:47 -10.4 °C -13.7 °C 34750.5 hPa NW 23.8 km/h 23.8 km/h 67 % 0 mm 424.0 W/m2 CLR
10:52 -9.8 °C -13 °C 34750.5 hPa WNW 29.8 km/h 29.8 km/h 68 % 0 mm 434.0 W/m2 CLR
10:57 -9.4 °C -12.8 °C 34750.5 hPa NNW 32.8 km/h 32.8 km/h 67 % 0 mm 446.0 W/m2 CLR
11:02 -9.4 °C -12.8 °C 34750.5 hPa NNW 29.8 km/h 29.8 km/h 67 % 0 mm 455.0 W/m2 CLR
11:07 -9.1 °C -12.7 °C 34750.5 hPa NW 17.9 km/h 17.9 km/h 66 % 0 mm 466.0 W/m2 CLR
11:12 -9.1 °C -12.7 °C 34750.5 hPa North 23.8 km/h 23.8 km/h 66 % 0 mm 475.0 W/m2 CLR
11:17 -9.1 °C -12.6 °C 34760.7 hPa NNW 38.8 km/h 38.8 km/h 67 % 0 mm 482.0 W/m2 CLR
11:22 -8.8 °C -12.3 °C 34750.5 hPa NNW 23.8 km/h 23.8 km/h 66 % 0 mm 494.0 W/m2 CLR
11:27 -8.8 °C -12.3 °C 34750.5 hPa NNW 20.9 km/h 20.9 km/h 66 % 0 mm 504.0 W/m2 CLR
11:32 -8.8 °C -12.5 °C 34750.5 hPa NNW 29.8 km/h 29.8 km/h 65 % 0 mm 512.0 W/m2 CLR
11:37 -8.5 °C -12.2 °C 34750.5 hPa NW 29.8 km/h 29.8 km/h 65 % 0 mm 519.0 W/m2 CLR
11:42 -8.5 °C -12.3 °C 34750.5 hPa WNW 11.9 km/h 11.9 km/h 64 % 0 mm 527.0 W/m2 CLR
11:47 -8.5 °C -12.3 °C 34750.5 hPa NNW 35.7 km/h 35.7 km/h 64 % 0 mm 534.0 W/m2 CLR
11:52 -8.2 °C -12.2 °C 34750.5 hPa NW 29.8 km/h 29.8 km/h 63 % 0 mm 543.0 W/m2 CLR
12:02 -8.2 °C -12.1 °C 34750.5 hPa NNW 33.6 km/h 33.6 km/h 64 % 0 mm 554.0 W/m2 CLR
12:07 -7.9 °C -11.7 °C 34750.5 hPa North 38.8 km/h 38.8 km/h 64 % 0 mm 561.0 W/m2 CLR
12:17 -7.9 °C -12 °C 34750.5 hPa North 47.6 km/h 47.6 km/h 62 % 0 mm 571.0 W/m2 CLR
12:22 -7.9 °C -11.7 °C 34740.4 hPa NNW 41.7 km/h 41.7 km/h 64 % 0 mm 575.0 W/m2 CLR
12:27 -7.9 °C -11.9 °C 34740.4 hPa NW 32.8 km/h 32.8 km/h 63 % 0 mm 580.0 W/m2 CLR
12:32 -7.9 °C -12 °C 34740.4 hPa NNW 50.7 km/h 50.7 km/h 62 % 0 mm 585.0 W/m2 CLR
12:37 -7.9 °C -12.3 °C 34726.8 hPa NNW 29.8 km/h 29.8 km/h 60 % 0 mm 587.0 W/m2 CLR
12:42 -7.6 °C -11.8 °C 34726.8 hPa North 41.4 km/h 41.4 km/h 61 % 0 mm 589.0 W/m2 CLR
12:47 -7.6 °C -11.8 °C 34726.8 hPa NNW 26.9 km/h 26.9 km/h 61 % 0 mm 592.0 W/m2 CLR
12:52 -7.6 °C -11.8 °C 34726.8 hPa North 38.8 km/h 38.8 km/h 61 % 0 mm 594.0 W/m2 CLR
12:57 -7.6 °C -11.8 °C 34726.8 hPa North 32.8 km/h 32.8 km/h 61 % 0 mm 596.0 W/m2 CLR
13:02 -7.6 °C -11.8 °C 34726.8 hPa NW 29.8 km/h 29.8 km/h 61 % 0 mm 598.0 W/m2 CLR
13:07 -7.6 °C -11.8 °C 34726.8 hPa NW 32.8 km/h 32.8 km/h 61 % 0 mm 598.0 W/m2 CLR
13:12 -7.6 °C -12 °C 34726.8 hPa North 29.8 km/h 29.8 km/h 60 % 0 mm 598.0 W/m2 CLR
13:22 -7.3 °C -11.8 °C 34716.7 hPa WNW 20.9 km/h 20.9 km/h 59 % 0 mm 598.0 W/m2 CLR
13:27 -7.3 °C -11.7 °C 34716.7 hPa North 23.8 km/h 23.8 km/h 60 % 0 mm 596.0 W/m2 CLR
13:32 -7.3 °C -11.7 °C 34716.7 hPa Calm     60 % 0 mm 596.0 W/m2 CLR
13:37 -7.3 °C -11.7 °C 34716.7 hPa NNE 3.1 km/h   60 % 0 mm 596.0 W/m2 CLR
13:42 -7.3 °C -11.7 °C 34716.7 hPa Calm   0.3 km/h 60 % 0 mm 594.0 W/m2 CLR
13:47 -7.6 °C -12.1 °C 34716.7 hPa NNE 5.1 km/h 5.1 km/h 59 % 0 mm 591.0 W/m2 CLR
13:52 -7.3 °C -11.7 °C 34716.7 hPa Calm     60 % 0 mm 589.0 W/m2 CLR
13:57 -7.3 °C -11.8 °C 34716.7 hPa Calm     59 % 0 mm 584.0 W/m2 CLR
14:02 -7.3 °C -11.8 °C 34703.1 hPa Calm     59 % 0 mm 582.0 W/m2 CLR
14:07 -7.6 °C -12 °C 34703.1 hPa Calm     60 % 0 mm 577.0 W/m2 CLR
14:12 -7.3 °C -11.7 °C 34703.1 hPa NNE 9 km/h 9 km/h 60 % 0 mm 573.0 W/m2 CLR
14:17 -7.6 °C -12.1 °C 34703.1 hPa NE 9 km/h 9 km/h 59 % 0 mm 571.0 W/m2 CLR
14:22 -7 °C -11.6 °C 34703.1 hPa Calm     59 % 0 mm 563.0 W/m2 CLR
14:27 -7.3 °C -11.7 °C 34703.1 hPa NNE 15 km/h 15 km/h 60 % 0 mm 557.0 W/m2 CLR
14:32 -7.3 °C -12 °C 34703.1 hPa NE 6 km/h 6 km/h 58 % 0 mm 552.0 W/m2 CLR
14:37 -7.3 °C -12.1 °C 34703.1 hPa Calm     57 % 0 mm 543.0 W/m2 CLR
14:42 -7.3 °C -11.8 °C 34703.1 hPa NE 15 km/h 15 km/h 59 % 0 mm 536.0 W/m2 CLR
14:47 -7.3 °C -12.1 °C 34693 hPa North 9 km/h 9 km/h 57 % 0 mm 531.0 W/m2 CLR
14:52 -7 °C -11.8 °C 34693 hPa NNE 7.7 km/h 7.7 km/h 57 % 0 mm 522.0 W/m2 CLR
14:57 -7 °C -11.8 °C 34693 hPa NNE 9 km/h 9 km/h 57 % 0 mm 512.0 W/m2 CLR
15:02 -7 °C -11.8 °C 34693 hPa ENE 5.1 km/h 5.1 km/h 57 % 0 mm 506.0 W/m2 CLR
15:07 -7.3 °C -12 °C 34693 hPa North 15.6 km/h 15.6 km/h 58 % 0 mm 497.0 W/m2 CLR
15:12 -7 °C -11.7 °C 34693 hPa NE 10.3 km/h 10.3 km/h 58 % 0 mm 487.0 W/m2 CLR
15:17 -7 °C -11.8 °C 34693 hPa NNE 20.9 km/h 20.9 km/h 57 % 0 mm 476.0 W/m2 CLR
15:22 -7 °C -11.8 °C 34693 hPa Calm     57 % 0 mm 469.0 W/m2 CLR
15:27 -7 °C -11.8 °C 34693 hPa NNE 10.3 km/h 10.3 km/h 57 % 0 mm 461.0 W/m2 CLR
15:32 -7 °C -12 °C 34693 hPa NNE 15 km/h 15 km/h 56 % 0 mm 450.0 W/m2 CLR
15:37 -7 °C -12 °C 34693 hPa NE 18.2 km/h 18.2 km/h 56 % 0 mm 436.0 W/m2 CLR
15:42 -7 °C -12 °C 34693 hPa North 17.9 km/h 17.9 km/h 56 % 0 mm 425.0 W/m2 CLR
15:47 -7 °C -12 °C 34693 hPa Calm     56 % 0 mm 415.0 W/m2 CLR
15:52 -6.7 °C -11.8 °C 34693 hPa Calm     55 % 0 mm 406.0 W/m2 CLR
15:57 -6.7 °C -11.8 °C 34693 hPa Calm     55 % 0 mm 396.0 W/m2 CLR
16:02 -7 °C -12.3 °C 34693 hPa North 15 km/h 15 km/h 54 % 0 mm 381.0 W/m2 CLR
16:07 -7.3 °C -12.3 °C 34693 hPa North 10.3 km/h 10.3 km/h 56 % 0 mm 371.0 W/m2 CLR
16:12 -7 °C -12.1 °C 34693 hPa NE 10.3 km/h 10.3 km/h 55 % 0 mm 359.0 W/m2 CLR
16:17 -7 °C -12.1 °C 34703.1 hPa NNE 6 km/h 6 km/h 55 % 0 mm 345.0 W/m2 CLR
16:22 -7 °C -12.1 °C 34693 hPa Calm     55 % 0 mm 329.0 W/m2 CLR
16:27 -7 °C -12.1 °C 34693 hPa North 23.8 km/h 23.8 km/h 55 % 0 mm 316.0 W/m2 CLR
16:32 -7 °C -12.3 °C 34693 hPa Calm     54 % 0 mm 302.0 W/m2 CLR
16:38 -7 °C -12.3 °C 34693 hPa Calm     54 % 0 mm 288.0 W/m2 CLR
16:43 -7 °C -12.3 °C 34693 hPa Calm     54 % 0 mm 274.0 W/m2 CLR
16:48 -7.3 °C -12.7 °C 34693 hPa Calm     53 % 0 mm 258.0 W/m2 CLR
16:53 -7.3 °C -12.7 °C 34693 hPa Calm     53 % 0 mm 243.0 W/m2 CLR
16:58 -7.3 °C -12.7 °C 34693 hPa Calm     53 % 0 mm 223.0 W/m2 CLR
17:03 -7.3 °C -12.7 °C 34693 hPa Calm     53 % 0 mm 211.0 W/m2 CLR
17:08 -7.3 °C -12.7 °C 34703.1 hPa Calm     53 % 0 mm 188.0 W/m2 CLR
17:13 -7.3 °C -12.6 °C 34693 hPa Calm     54 % 0 mm 172.0 W/m2 CLR
17:18 -7.3 °C -12.6 °C 34693 hPa Calm     54 % 0 mm 167.0 W/m2 CLR
17:23 -7.6 °C -12.9 °C 34693 hPa Calm     54 % 0 mm 139.0 W/m2 CLR
17:28 -7.6 °C -12.9 °C 34703.1 hPa Calm     54 % 0 mm 121.0 W/m2 CLR
17:33 -7.6 °C -12.7 °C 34703.1 hPa Calm     55 % 0 mm 113.0 W/m2 CLR
17:38 -7.9 °C -13.2 °C 34703.1 hPa Calm     54 % 0 mm 47.0 W/m2 SCT
17:43 -8.2 °C -13.4 °C 34703.1 hPa Calm     54 % 0 mm 42.0 W/m2 BKN
17:48 -8.5 °C -13.4 °C 34703.1 hPa Calm     56 % 0 mm 40.0 W/m2 BKN
17:53 -8.8 °C -13.7 °C 34703.1 hPa Calm     56 % 0 mm 53.0 W/m2 SCT
17:58 -9.1 °C -13.8 °C 34703.1 hPa Calm     57 % 0 mm 44.0 W/m2 BKN
18:03 -9.1 °C -13.7 °C 34703.1 hPa Calm     58 % 0 mm 39.0 W/m2 BKN
18:08 -9.4 °C -14 °C 34703.1 hPa Calm     58 % 0 mm 28.0 W/m2 BKN
18:13 -9.8 °C -14.3 °C 34703.1 hPa Calm     58 % 0 mm 23.0 W/m2 BKN
18:18 -9.8 °C -14.3 °C 34703.1 hPa Calm     58 % 0 mm 19.0 W/m2 BKN
18:23 -10.1 °C -14.4 °C 34703.1 hPa Calm     59 % 0 mm 16.0 W/m2 BKN
18:28 -10.1 °C -14.4 °C 34703.1 hPa Calm     59 % 0 mm 11.0 W/m2 BKN
18:33 -10.4 °C -14.6 °C 34716.7 hPa Calm     60 % 0 mm 5.0 W/m2 OVC
18:38 -10.4 °C -14.5 °C 34716.7 hPa Calm     61 % 0 mm 0.0 W/m2 OVC
18:43 -10.7 °C -14.8 °C 34716.7 hPa Calm     61 % 0 mm 0.0 W/m2 OVC
18:48 -10.4 °C -14.2 °C 34716.7 hPa Calm     63 % 0 mm 0.0 W/m2 CLR
18:53 -10.4 °C -14.1 °C 34716.7 hPa Calm     64 % 0 mm 0.0 W/m2 CLR
18:58 -10.7 °C -14.3 °C 34716.7 hPa Calm     65 % 0 mm 0.0 W/m2 CLR
19:03 -10.7 °C -14 °C 34716.7 hPa Calm     67 % 0 mm 0.0 W/m2 CLR
19:08 -10.7 °C -13.9 °C 34726.8 hPa Calm     68 % 0 mm 0.0 W/m2 CLR
19:13 -11 °C -13.9 °C 34726.8 hPa Calm     70 % 0 mm 0.0 W/m2 CLR
19:18 -11 °C -13.7 °C 34726.8 hPa Calm     72 % 0 mm 0.0 W/m2 CLR
19:23 -11.3 °C -13.8 °C 34726.8 hPa Calm     74 % 0 mm 0.0 W/m2 CLR
19:28 -11.3 °C -13.7 °C 34726.8 hPa Calm     75 % 0 mm 0.0 W/m2 CLR
19:33 -11.3 °C -13.7 °C 34740.4 hPa Calm     75 % 0 mm 0.0 W/m2 CLR
19:38 -11.6 °C -13.8 °C 34740.4 hPa Calm     76 % 0 mm 0.0 W/m2 CLR
19:43 -11.6 °C -13.8 °C 34740.4 hPa Calm     77 % 0 mm 0.0 W/m2 CLR
19:48 -11.9 °C -13.9 °C 34740.4 hPa Calm     78 % 0 mm 0.0 W/m2 CLR
19:53 -11.9 °C -13.8 °C 34740.4 hPa Calm     79 % 0 mm 0.0 W/m2 CLR
19:58 -11.9 °C -13.8 °C 34740.4 hPa Calm     80 % 0 mm 0.0 W/m2 CLR
20:03 -11.9 °C -13.8 °C 34750.5 hPa Calm     80 % 0 mm 0.0 W/m2 CLR
20:08 -11.9 °C -13.8 °C 34750.5 hPa Calm     80 % 0 mm 0.0 W/m2 CLR
20:13 -12.2 °C -14.1 °C 34750.5 hPa Calm     80 % 0 mm 0.0 W/m2 CLR
20:18 -12.6 °C -14.3 °C 34750.5 hPa Calm     80 % 0 mm 0.0 W/m2 CLR
20:23 -12.6 °C -14.3 °C 34750.5 hPa Calm     81 % 0 mm 0.0 W/m2 CLR
20:28 -12.6 °C -14.2 °C 34760.7 hPa Calm     82 % 0 mm 0.0 W/m2 CLR
20:33 -12.8 °C -14.4 °C 34760.7 hPa Calm     82 % 0 mm 0.0 W/m2 CLR
20:38 -12.8 °C -14.4 °C 34760.7 hPa Calm     82 % 0 mm 0.0 W/m2 CLR
20:43 -12.8 °C -14.3 °C 34760.7 hPa Calm     83 % 0 mm 0.0 W/m2 CLR
20:48 -12.6 °C -14.1 °C 34760.7 hPa Calm     83 % 0 mm 0.0 W/m2 CLR
20:53 -12.6 °C -13.9 °C 34760.7 hPa Calm     84 % 0 mm 0.0 W/m2 CLR
20:58 -12.8 °C -14.3 °C 34760.7 hPa Calm     84 % 0 mm 0.0 W/m2 CLR
21:03 -12.8 °C -14.3 °C 34760.7 hPa Calm     84 % 0 mm 0.0 W/m2 CLR
21:08 -12.8 °C -14.3 °C 34760.7 hPa Calm     84 % 0 mm 0.0 W/m2 CLR
21:13 -12.6 °C -13.9 °C 34760.7 hPa Calm     84 % 0 mm 0.0 W/m2 CLR
21:18 -12.8 °C -14.2 °C 34760.7 hPa Calm     85 % 0 mm 0.0 W/m2 CLR
21:23 -12.8 °C -14.2 °C 34760.7 hPa Calm     85 % 0 mm 0.0 W/m2 CLR
21:28 -12.8 °C -14.2 °C 34760.7 hPa Calm     85 % 0 mm 0.0 W/m2 CLR
21:33 -12.8 °C -14.2 °C 34760.7 hPa Calm     85 % 0 mm 0.0 W/m2 CLR
21:38 -12.8 °C -14.2 °C 34774.2 hPa Calm     85 % 0 mm 0.0 W/m2 CLR
21:43 -13.2 °C -14.5 °C 34774.2 hPa Calm     85 % 0 mm 0.0 W/m2 CLR
21:49 -13.2 °C -14.5 °C 34774.2 hPa Calm     85 % 0 mm 0.0 W/m2 CLR
21:54 -13.4 °C -14.7 °C 34774.2 hPa Calm     86 % 0 mm 0.0 W/m2 CLR
21:59 -13.4 °C -14.7 °C 34774.2 hPa Calm     86 % 0 mm 0.0 W/m2 CLR
22:04 -13.4 °C -14.7 °C 34774.2 hPa Calm     86 % 0 mm 0.0 W/m2 CLR
22:09 -13.4 °C -14.6 °C 34774.2 hPa Calm     87 % 0 mm 0.0 W/m2 CLR
22:14 -13.4 °C -14.7 °C 34784.4 hPa Calm     86 % 0 mm 0.0 W/m2 CLR
22:19 -13.4 °C -14.6 °C 34784.4 hPa Calm     87 % 0 mm 0.0 W/m2 CLR
22:24 -13.4 °C -14.7 °C 34784.4 hPa Calm     86 % 0 mm 0.0 W/m2 CLR
22:29 -13.4 °C -14.7 °C 34784.4 hPa Calm     86 % 0 mm 0.0 W/m2 CLR
22:34 -13.8 °C -14.9 °C 34784.4 hPa Calm     86 % 0 mm 0.0 W/m2 CLR
22:39 -13.8 °C -14.9 °C 34784.4 hPa Calm     87 % 0 mm 0.0 W/m2 CLR
22:44 -13.8 °C -14.9 °C 34784.4 hPa Calm     87 % 0 mm 0.0 W/m2 CLR
22:49 -13.8 °C -14.9 °C 34784.4 hPa Calm     87 % 0 mm 0.0 W/m2 CLR
22:54 -13.8 °C -14.9 °C 34784.4 hPa Calm     87 % 0 mm 0.0 W/m2 CLR
22:59 -13.8 °C -14.9 °C 34784.4 hPa Calm     87 % 0 mm 0.0 W/m2 CLR
23:04 -13.8 °C -14.9 °C 34797.9 hPa Calm     87 % 0 mm 0.0 W/m2 CLR
23:09 -13.8 °C -14.9 °C 34784.4 hPa Calm     87 % 0 mm 0.0 W/m2 CLR
23:14 -13.8 °C -14.9 °C 34784.4 hPa Calm     87 % 0 mm 0.0 W/m2 CLR
23:19 -14.1 °C -15.1 °C 34784.4 hPa Calm     88 % 0 mm 0.0 W/m2 CLR
23:24 -14.1 °C -15.1 °C 34784.4 hPa Calm     88 % 0 mm 0.0 W/m2 CLR
23:29 -14.1 °C -15.1 °C 34784.4 hPa Calm     88 % 0 mm 0.0 W/m2 CLR
23:34 -14.1 °C -15.1 °C 34784.4 hPa Calm     88 % 0 mm 0.0 W/m2 CLR
23:39 -14.1 °C -15.1 °C 34784.4 hPa Calm     88 % 0 mm 0.0 W/m2 CLR
23:44 -14.1 °C -15 °C 34784.4 hPa Calm     89 % 0 mm 0.0 W/m2 CLR
23:49 -14.1 °C -15 °C 34784.4 hPa Calm     89 % 0 mm 0.0 W/m2 CLR
23:54 -14.1 °C -15 °C 34784.4 hPa Calm     89 % 0 mm 0.0 W/m2 CLR
23:59 -14.1 °C -15 °C 34784.4 hPa Calm     89 % 0 mm 0.0 W/m2 CLR
Lo Temps de Massalio
Compliments of Weather Underground - 1.25 mb